Time;durP1;ratioP1;P1;durP2;ratioP2;P2;SDS_P1;SDS_P2;PMS_P1;PMS_P2;Temp;Humidity;BMP_temperature;BMP_pressure;BME280_temperature;BME280_humidity;BME280_pressure;Samples;Min_cycle;Max_cycle;Signal;HPM_P1;HPM_P2
2023/04/24 00:02:21;;;;;;;8.63;7.30;;;13.00;20.40;;;;;;5072757;28;20619;-71
2023/04/24 00:04:48;;;;;;;7.30;6.60;;;13.00;20.30;;;;;;5073211;28;20414;-72
2023/04/24 00:07:19;;;;;;;10.53;6.77;;;13.00;26.10;;;;;;5073347;28;20848;-71
2023/04/24 00:10:20;;;;;;;7.83;6.90;;;13.10;24.30;;;;;;5071920;28;20403;-72
2023/04/24 00:12:45;;;;;;;6.60;5.97;;;13.00;24.20;;;;;;5076017;28;20939;-72
2023/04/24 00:15:11;;;;;;;7.33;6.63;;;13.00;24.40;;;;;;5076958;28;20416;-71
2023/04/24 00:17:37;;;;;;;7.43;6.73;;;13.00;21.00;;;;;;5077237;28;20205;-71
2023/04/24 00:20:07;;;;;;;6.70;6.10;;;13.00;16.40;;;;;;5064274;28;20174;-71
2023/04/24 00:22:33;;;;;;;6.83;6.13;;;13.10;13.70;;;;;;5077449;28;20476;-71
2023/04/24 00:24:59;;;;;;;7.30;6.70;;;13.10;15.30;;;;;;5077289;28;20402;-72
2023/04/24 00:27:25;;;;;;;6.13;5.60;;;13.10;7.80;;;;;;5077942;28;20427;-72
2023/04/24 00:29:51;;;;;;;7.97;7.20;;;13.10;7.00;;;;;;5059348;28;20395;-72
2023/04/24 00:32:17;;;;;;;6.67;5.97;;;13.10;7.40;;;;;;5068977;28;20267;-71
2023/04/24 00:34:43;;;;;;;6.93;6.27;;;13.10;6.90;;;;;;5078920;28;20390;-72
2023/04/24 00:37:09;;;;;;;7.67;6.87;;;13.00;8.90;;;;;;5090921;28;20311;-72
2023/04/24 00:39:35;;;;;;;6.63;5.83;;;13.10;9.50;;;;;;5097122;28;20399;-71
2023/04/24 00:42:01;;;;;;;6.53;6.03;;;13.00;9.00;;;;;;5094466;28;20661;-72
2023/04/24 00:45:07;;;;;;;6.10;5.60;;;13.00;6.80;;;;;;5096916;28;20161;-71
2023/04/24 00:47:34;;;;;;;7.40;6.80;;;12.90;9.20;;;;;;5085512;28;20753;-71
2023/04/24 00:50:05;;;;;;;7.60;6.90;;;12.90;15.20;;;;;;5074615;28;20407;-71
2023/04/24 00:52:31;;;;;;;13.90;5.77;;;12.90;13.60;;;;;;5086480;28;20406;-71
2023/04/24 00:55:00;;;;;;;7.30;6.60;;;12.80;16.60;;;;;;5096938;28;20471;-72
2023/04/24 00:57:26;;;;;;;7.53;6.07;;;12.80;26.60;;;;;;5087520;28;20512;-73
2023/04/24 00:59:53;;;;;;;7.57;6.87;;;12.70;40.10;;;;;;5076595;28;20444;-70
2023/04/24 01:02:20;;;;;;;7.33;6.27;;;12.60;60.90;;;;;;5083077;28;20952;-73
2023/04/24 01:04:46;;;;;;;7.03;6.37;;;12.60;86.50;;;;;;5086689;28;20423;-73
2023/04/24 01:07:12;;;;;;;7.33;6.60;;;12.50;93.00;;;;;;5081548;28;20479;-72
2023/04/24 01:09:41;;;;;;;7.60;6.77;;;12.50;98.10;;;;;;5096400;28;20158;-69
2023/04/24 01:12:07;;;;;;;7.83;6.27;;;12.40;99.90;;;;;;5090525;28;20256;-72
2023/04/24 01:14:33;;;;;;;7.60;6.50;;;12.40;99.90;;;;;;5076122;28;20376;-72
2023/04/24 01:17:00;;;;;;;14.23;6.33;;;12.30;99.90;;;;;;5079049;28;20410;-72
2023/04/24 01:19:26;;;;;;;7.10;6.50;;;12.30;99.90;;;;;;5078161;28;20438;-73
2023/04/24 01:21:54;;;;;;;7.77;6.97;;;12.30;99.90;;;;;;5093396;28;20920;-69
2023/04/24 01:24:20;;;;;;;7.53;6.83;;;12.20;99.90;;;;;;5074665;28;20885;-73
2023/04/24 01:26:46;;;;;;;6.20;5.60;;;12.10;99.90;;;;;;5075795;28;20407;-72
2023/04/24 01:29:12;;;;;;;8.87;6.53;;;12.10;99.90;;;;;;5076038;28;20173;-73
2023/04/24 01:31:39;;;;;;;6.83;6.23;;;12.10;99.90;;;;;;5080031;28;20465;-73
2023/04/24 01:34:05;;;;;;;6.80;6.20;;;12.10;99.90;;;;;;5075937;28;20216;-73
2023/04/24 01:36:32;;;;;;;5.70;5.20;;;12.10;99.90;;;;;;5076566;28;20848;-73
2023/04/24 01:38:58;;;;;;;6.80;6.10;;;12.10;99.90;;;;;;5076012;28;20765;-70
2023/04/24 01:41:25;;;;;;;6.87;6.10;;;12.10;99.90;;;;;;5082920;28;20381;-70
2023/04/24 01:43:51;;;;;;;7.20;6.50;;;12.00;99.90;;;;;;5087155;28;20221;-73
2023/04/24 01:46:16;;;;;;;7.30;5.40;;;12.00;99.90;;;;;;5064939;28;20886;-74
2023/04/24 01:48:42;;;;;;;6.13;5.53;;;12.00;99.90;;;;;;5095746;28;20194;-69
2023/04/24 01:51:08;;;;;;;7.43;6.67;;;12.00;99.90;;;;;;5089079;28;20704;-74
2023/04/24 01:53:34;;;;;;;8.17;7.37;;;12.00;99.90;;;;;;5075576;28;20186;-74
2023/04/24 01:56:00;;;;;;;5.90;5.30;;;12.10;99.90;;;;;;5082262;28;20219;-71
2023/04/24 01:58:27;;;;;;;13.13;7.80;;;12.10;99.90;;;;;;5087797;28;20202;-70
2023/04/24 02:00:52;;;;;;;6.10;5.50;;;12.10;99.90;;;;;;5074548;28;20396;-70
2023/04/24 02:03:18;;;;;;;7.07;5.33;;;12.10;99.90;;;;;;5075113;28;20429;-71
2023/04/24 02:05:45;;;;;;;6.73;6.13;;;12.00;99.90;;;;;;5076848;28;20673;-71
2023/04/24 02:08:11;;;;;;;7.37;6.73;;;12.00;99.90;;;;;;5095255;28;20197;-70
2023/04/24 02:10:36;;;;;;;10.87;7.00;;;12.00;99.90;;;;;;5075492;28;20586;-73
2023/04/24 02:13:02;;;;;;;9.27;5.67;;;11.90;99.90;;;;;;5075149;28;20205;-74
2023/04/24 02:15:28;;;;;;;7.07;6.00;;;11.90;99.90;;;;;;5074693;28;20631;-70
2023/04/24 02:17:53;;;;;;;6.97;6.37;;;11.90;99.90;;;;;;5057005;28;20180;-70
2023/04/24 02:20:19;;;;;;;7.80;6.20;;;11.90;99.90;;;;;;5088674;28;20259;-73
2023/04/24 02:22:45;;;;;;;7.70;7.10;;;11.80;99.90;;;;;;5094863;28;20185;-69
2023/04/24 02:25:13;;;;;;;7.00;6.30;;;11.80;99.90;;;;;;5063592;28;20178;-73
2023/04/24 02:27:39;;;;;;;7.50;6.77;;;11.80;99.90;;;;;;5073990;28;20243;-73
2023/04/24 02:30:05;;;;;;;7.87;7.10;;;11.80;99.90;;;;;;5077605;28;20801;-72
2023/04/24 02:32:31;;;;;;;8.37;7.57;;;11.70;99.90;;;;;;5074318;28;20210;-71
2023/04/24 02:34:57;;;;;;;7.50;6.80;;;11.80;99.90;;;;;;5075020;28;20773;-73
2023/04/24 02:37:22;;;;;;;7.60;7.00;;;11.80;99.90;;;;;;5066318;28;20195;-74
2023/04/24 02:39:48;;;;;;;8.67;7.30;;;11.80;99.90;;;;;;5063780;28;20214;-73
2023/04/24 02:42:15;;;;;;;7.90;7.13;;;11.80;99.90;;;;;;5080959;28;20203;-70
2023/04/24 02:44:41;;;;;;;7.80;7.10;;;11.70;99.90;;;;;;5094702;28;20170;-73
2023/04/24 02:47:07;;;;;;;7.70;6.90;;;11.70;99.90;;;;;;5089174;28;20428;-73
2023/04/24 02:49:33;;;;;;;7.60;7.00;;;11.70;99.90;;;;;;5073919;28;20525;-70
2023/04/24 02:51:58;;;;;;;8.60;7.90;;;11.70;99.90;;;;;;5080847;28;20447;-70
2023/04/24 02:54:24;;;;;;;7.63;7.00;;;11.70;99.90;;;;;;5082951;28;20170;-74
2023/04/24 02:56:50;;;;;;;7.90;7.10;;;11.70;99.90;;;;;;5080444;28;20176;-71
2023/04/24 02:59:16;;;;;;;8.03;7.33;;;11.70;99.90;;;;;;5076628;28;20761;-74
2023/04/24 03:01:41;;;;;;;7.37;6.67;;;11.70;99.90;;;;;;5088972;28;20170;-70
2023/04/24 03:04:07;;;;;;;7.23;6.33;;;11.60;99.90;;;;;;5073816;28;20189;-74
2023/04/24 03:06:35;;;;;;;7.87;7.10;;;11.60;99.90;;;;;;5057784;28;20264;-70
2023/04/24 03:09:01;;;;;;;7.73;7.13;;;11.60;99.90;;;;;;5055844;28;20171;-71
2023/04/24 03:11:27;;;;;;;7.97;7.00;;;11.60;99.90;;;;;;5059656;28;20413;-70
2023/04/24 03:13:52;;;;;;;8.60;7.70;;;11.70;99.90;;;;;;5094358;28;20418;-71
2023/04/24 03:16:18;;;;;;;9.23;7.40;;;11.60;99.90;;;;;;5072563;28;20177;-71
2023/04/24 03:18:44;;;;;;;7.23;6.53;;;11.50;99.90;;;;;;5073912;28;20220;-71
2023/04/24 03:21:09;;;;;;;8.30;7.40;;;11.50;99.90;;;;;;5071627;28;20218;-71
2023/04/24 03:23:35;;;;;;;7.50;6.80;;;11.60;99.90;;;;;;5074143;28;20663;-71
2023/04/24 03:26:02;;;;;;;8.20;7.40;;;11.50;99.90;;;;;;5055297;28;20174;-70
2023/04/24 03:28:27;;;;;;;7.83;7.03;;;11.50;99.90;;;;;;5056814;28;20210;-74
2023/04/24 03:30:53;;;;;;;7.53;6.73;;;11.60;99.90;;;;;;5072654;28;20409;-72
2023/04/24 03:33:19;;;;;;;7.70;7.00;;;11.60;99.90;;;;;;5073526;28;20193;-73
2023/04/24 03:35:45;;;;;;;12.00;7.47;;;11.50;99.90;;;;;;5091638;28;20165;-70
2023/04/24 03:38:10;;;;;;;7.13;6.53;;;11.50;99.90;;;;;;5090131;28;20204;-73
2023/04/24 03:40:36;;;;;;;8.33;7.20;;;11.50;99.90;;;;;;5075129;28;20311;-70
2023/04/24 03:43:02;;;;;;;7.97;6.77;;;11.50;99.90;;;;;;5078197;28;20204;-73
2023/04/24 03:45:27;;;;;;;7.37;6.67;;;11.50;99.90;;;;;;5073296;28;20166;-71
2023/04/24 03:47:53;;;;;;;8.47;6.97;;;11.40;99.90;;;;;;5089409;28;20189;-73
2023/04/24 03:50:19;;;;;;;8.83;7.60;;;11.40;99.90;;;;;;5081768;28;20185;-71
2023/04/24 03:52:45;;;;;;;7.63;6.47;;;11.40;99.90;;;;;;5076684;28;20651;-73
2023/04/24 03:55:12;;;;;;;7.23;6.53;;;11.40;99.90;;;;;;5078459;28;20166;-73
2023/04/24 03:57:39;;;;;;;6.93;6.33;;;11.30;99.90;;;;;;5078538;28;20162;-70
2023/04/24 04:00:06;;;;;;;7.67;6.73;;;11.30;99.90;;;;;;5076791;28;20394;-72
2023/04/24 04:02:31;;;;;;;7.77;7.07;;;11.30;99.90;;;;;;5060404;28;20965;-73
2023/04/24 04:04:57;;;;;;;6.50;5.90;;;11.20;99.90;;;;;;5076990;28;20420;-71
2023/04/24 04:07:23;;;;;;;12.37;6.93;;;11.20;99.90;;;;;;5076333;28;20263;-71
2023/04/24 04:09:48;;;;;;;7.10;6.40;;;11.20;99.90;;;;;;5077461;28;20166;-71
2023/04/24 04:12:14;;;;;;;7.87;6.40;;;11.20;99.90;;;;;;5076513;28;20232;-71
2023/04/24 04:14:40;;;;;;;7.13;6.53;;;11.10;99.90;;;;;;5077437;28;20631;-71
2023/04/24 04:17:05;;;;;;;6.70;6.10;;;11.10;99.90;;;;;;5071546;28;20177;-73
2023/04/24 04:19:31;;;;;;;7.13;6.10;;;11.20;99.90;;;;;;5060149;28;20725;-71
2023/04/24 04:21:57;;;;;;;8.40;6.90;;;11.20;99.90;;;;;;5075871;28;20194;-73
2023/04/24 04:24:23;;;;;;;6.93;6.33;;;11.20;99.90;;;;;;5076956;28;20649;-73
2023/04/24 04:26:51;;;;;;;6.00;5.57;;;11.20;99.90;;;;;;5087751;28;20165;-71
2023/04/24 04:29:18;;;;;;;6.67;5.93;;;11.20;99.90;;;;;;5097200;28;20723;-73
2023/04/24 04:31:44;;;;;;;6.13;5.53;;;11.20;99.90;;;;;;5088204;28;20420;-71
2023/04/24 04:34:11;;;;;;;5.60;5.07;;;11.10;99.90;;;;;;5078665;28;20367;-73
2023/04/24 04:36:39;;;;;;;5.73;5.20;;;11.10;99.90;;;;;;5084654;28;20390;-72
2023/04/24 04:39:05;;;;;;;6.27;4.70;;;11.00;99.90;;;;;;5097427;28;20396;-70
2023/04/24 04:41:32;;;;;;;4.83;4.43;;;11.00;99.90;;;;;;5089008;28;20393;-73
2023/04/24 04:44:00;;;;;;;5.53;5.03;;;11.00;99.90;;;;;;5076917;28;20426;-70
2023/04/24 04:46:26;;;;;;;5.20;4.33;;;11.00;99.90;;;;;;5075676;28;20416;-70
2023/04/24 04:48:54;;;;;;;5.40;5.00;;;10.90;99.90;;;;;;5076779;28;20433;-73
2023/04/24 04:51:20;;;;;;;4.63;4.23;;;10.90;99.90;;;;;;5079597;28;20319;-72
2023/04/24 04:53:45;;;;;;;4.87;4.47;;;10.90;99.90;;;;;;5096809;28;20496;-71
2023/04/24 04:56:11;;;;;;;16.50;4.80;;;11.00;99.90;;;;;;5094407;28;20371;-74
2023/04/24 04:58:37;;;;;;;5.23;4.87;;;11.00;99.90;;;;;;5076510;28;20181;-74
2023/04/24 05:01:03;;;;;;;4.10;3.80;;;11.00;99.90;;;;;;5074895;28;20506;-74
2023/04/24 05:03:28;;;;;;;4.40;4.10;;;11.00;99.90;;;;;;5076129;28;20399;-74
2023/04/24 05:05:54;;;;;;;4.33;3.93;;;11.00;99.90;;;;;;5075675;28;20188;-72
2023/04/24 05:08:20;;;;;;;4.50;4.10;;;11.10;99.90;;;;;;5074034;28;20198;-71
2023/04/24 05:10:46;;;;;;;4.10;3.80;;;11.10;99.90;;;;;;5072293;28;20174;-70
2023/04/24 05:13:11;;;;;;;4.63;4.23;;;11.10;99.90;;;;;;5075353;28;20194;-70
2023/04/24 05:15:37;;;;;;;4.23;3.97;;;11.10;99.90;;;;;;5077216;28;20181;-71
2023/04/24 05:18:03;;;;;;;4.90;4.60;;;11.10;99.90;;;;;;5077324;28;20185;-71
2023/04/24 05:20:28;;;;;;;3.97;3.67;;;11.10;99.90;;;;;;5077881;28;20190;-72
2023/04/24 05:22:54;;;;;;;4.93;4.53;;;11.10;99.90;;;;;;5074426;28;20569;-71
2023/04/24 05:25:20;;;;;;;4.60;4.20;;;11.20;99.90;;;;;;5096254;28;20204;-72
2023/04/24 05:27:46;;;;;;;4.87;4.47;;;11.30;99.90;;;;;;5094081;28;20204;-72
2023/04/24 05:30:12;;;;;;;3.90;3.60;;;11.30;99.90;;;;;;5095224;28;20158;-71
2023/04/24 05:32:38;;;;;;;3.90;3.70;;;11.40;99.90;;;;;;5061987;28;20433;-72
2023/04/24 05:35:04;;;;;;;4.53;4.20;;;11.40;99.90;;;;;;5075615;28;20412;-70
2023/04/24 05:37:32;;;;;;;5.00;4.50;;;11.50;99.90;;;;;;5072702;28;20223;-72
2023/04/24 05:39:58;;;;;;;5.10;4.67;;;11.50;99.90;;;;;;5095709;28;20371;-70
2023/04/24 05:42:24;;;;;;;8.73;5.20;;;11.50;99.90;;;;;;5080651;28;20774;-72
2023/04/24 05:44:50;;;;;;;5.43;4.70;;;11.60;99.90;;;;;;5074993;28;20193;-72
2023/04/24 05:47:16;;;;;;;5.70;5.20;;;11.60;99.90;;;;;;5088450;28;20894;-71
2023/04/24 05:49:41;;;;;;;5.10;4.60;;;11.60;99.90;;;;;;5095692;28;20170;-71
2023/04/24 05:52:08;;;;;;;5.50;5.00;;;11.80;99.90;;;;;;5057925;28;20658;-71
2023/04/24 05:54:34;;;;;;;4.87;4.47;;;11.80;99.90;;;;;;5074984;28;20216;-71
2023/04/24 05:57:04;;;;;;;6.23;4.30;;;11.90;99.90;;;;;;5076114;28;20793;-70
2023/04/24 05:59:29;;;;;;;4.43;3.90;;;12.00;99.90;;;;;;5095498;28;20465;-70
2023/04/24 06:01:55;;;;;;;7.93;4.20;;;11.90;99.90;;;;;;5094845;28;20931;-71
2023/04/24 06:04:21;;;;;;;4.77;4.47;;;11.90;99.90;;;;;;5095216;28;20260;-70
2023/04/24 06:06:50;;;;;;;5.00;4.40;;;11.90;99.90;;;;;;5060837;28;20566;-70
2023/04/24 06:09:16;;;;;;;4.53;3.83;;;11.80;99.90;;;;;;5074786;28;20154;-70
2023/04/24 06:11:42;;;;;;;4.80;4.10;;;11.80;99.90;;;;;;5073795;28;20397;-71
2023/04/24 06:14:08;;;;;;;3.97;3.67;;;11.90;99.90;;;;;;5075377;28;20702;-71
2023/04/24 06:16:33;;;;;;;4.13;3.80;;;12.00;99.90;;;;;;5074955;28;20200;-71
2023/04/24 06:18:59;;;;;;;3.80;3.50;;;12.00;99.90;;;;;;5074503;28;20182;-72
2023/04/24 06:21:25;;;;;;;6.93;3.70;;;12.00;99.90;;;;;;5073902;28;20170;-72
2023/04/24 06:23:52;;;;;;;6.43;4.13;;;12.10;99.90;;;;;;5074851;28;20422;-71
2023/04/24 06:26:17;;;;;;;4.97;3.20;;;12.10;99.90;;;;;;5074896;28;20492;-71
2023/04/24 06:28:43;;;;;;;3.23;3.03;;;12.20;99.90;;;;;;5074520;28;20844;-71
2023/04/24 06:31:09;;;;;;;4.57;3.60;;;12.20;92.80;;;;;;5073568;28;20170;-72
2023/04/24 06:33:35;;;;;;;5.50;3.60;;;12.10;92.80;;;;;;5073959;28;20218;-72
2023/04/24 06:36:01;;;;;;;4.00;3.70;;;12.10;92.80;;;;;;5074685;28;20414;-72
2023/04/24 06:38:27;;;;;;;3.53;3.33;;;12.10;92.80;;;;;;5074662;28;20687;-71
2023/04/24 06:40:52;;;;;;;3.70;3.50;;;12.10;92.80;;;;;;5073641;28;20174;-71
2023/04/24 06:43:19;;;;;;;3.97;3.67;;;12.20;92.80;;;;;;5074882;28;20474;-71
2023/04/24 06:45:46;;;;;;;3.67;3.37;;;12.40;91.00;;;;;;5074140;28;20170;-71
2023/04/24 06:48:11;;;;;;;4.97;3.37;;;12.50;69.90;;;;;;5073418;28;20546;-71
2023/04/24 06:50:37;;;;;;;3.87;3.50;;;12.50;56.70;;;;;;5073154;28;20515;-71
2023/04/24 06:53:03;;;;;;;4.40;4.10;;;12.50;50.60;;;;;;5074378;28;20542;-71
2023/04/24 06:55:29;;;;;;;3.30;3.10;;;12.50;36.60;;;;;;5056394;28;20178;-70
2023/04/24 06:57:55;;;;;;;3.43;3.23;;;12.50;28.20;;;;;;5074142;28;20170;-71
2023/04/24 07:00:20;;;;;;;3.23;2.93;;;12.50;25.90;;;;;;5073491;28;20379;-71
2023/04/24 07:02:46;;;;;;;3.60;3.30;;;12.60;16.90;;;;;;5055238;28;20202;-72
2023/04/24 07:05:12;;;;;;;3.60;3.30;;;12.50;18.80;;;;;;5074027;28;20197;-71
2023/04/24 07:07:40;;;;;;;3.90;3.60;;;12.50;15.00;;;;;;5056127;28;20198;-71
2023/04/24 07:10:06;;;;;;;3.87;3.60;;;12.60;11.60;;;;;;5072836;28;20819;-71
2023/04/24 07:12:32;;;;;;;3.30;3.00;;;12.60;5.30;;;;;;5056456;28;20420;-72
2023/04/24 07:14:57;;;;;;;7.07;3.60;;;12.60;5.20;;;;;;5072695;28;20815;-71
2023/04/24 07:17:23;;;;;;;4.10;3.60;;;12.60;1.80;;;;;;5074100;28;20426;-71
2023/04/24 07:19:49;;;;;;;6.17;3.60;;;12.60;1.00;;;;;;5073871;28;20530;-71
2023/04/24 07:22:16;;;;;;;3.57;3.33;;;12.60;1.00;;;;;;5072710;28;20559;-71
2023/04/24 07:24:44;;;;;;;3.50;3.13;;;12.70;1.00;;;;;;5073221;28;20436;-72
2023/04/24 07:27:10;;;;;;;3.50;3.20;;;12.70;1.00;;;;;;5073249;28;20856;-71
2023/04/24 07:29:35;;;;;;;2.93;2.73;;;12.60;1.00;;;;;;5074459;28;20443;-71
2023/04/24 07:32:01;;;;;;;3.33;3.13;;;12.70;1.00;;;;;;5072992;28;20193;-72
2023/04/24 07:34:27;;;;;;;3.53;3.23;;;12.70;1.00;;;;;;5074917;28;20174;-71
2023/04/24 07:36:52;;;;;;;3.63;3.33;;;12.70;1.00;;;;;;5073469;28;20205;-72
2023/04/24 07:39:18;;;;;;;5.50;3.40;;;12.80;1.00;;;;;;5072717;28;20623;-71
2023/04/24 07:41:44;;;;;;;4.20;3.90;;;12.80;1.00;;;;;;5072167;28;20257;-71
2023/04/24 07:44:10;;;;;;;4.10;3.50;;;12.90;1.00;;;;;;5073632;28;20423;-71
2023/04/24 07:46:36;;;;;;;3.60;3.30;;;12.90;1.00;;;;;;5073435;28;20216;-72
2023/04/24 07:49:01;;;;;;;3.43;3.23;;;12.90;1.00;;;;;;5055836;28;20309;-72
2023/04/24 07:51:33;;;;;;;3.77;3.50;;;13.00;1.00;;;;;;5072498;28;20714;-71
2023/04/24 07:53:59;;;;;;;4.40;3.90;;;13.00;1.00;;;;;;5060438;28;20202;-71
2023/04/24 07:56:25;;;;;;;3.83;3.53;;;13.00;1.00;;;;;;5073531;28;20391;-71
2023/04/24 07:58:50;;;;;;;3.40;3.20;;;13.00;1.00;;;;;;5073760;28;20170;-70
2023/04/24 08:01:16;;;;;;;4.70;4.30;;;13.00;1.00;;;;;;5054031;28;20425;-71
2023/04/24 08:03:42;;;;;;;3.03;2.83;;;12.90;1.00;;;;;;5073297;28;20296;-70
2023/04/24 08:06:08;;;;;;;4.47;4.17;;;12.90;1.00;;;;;;5072051;28;20181;-71
2023/04/24 08:08:33;;;;;;;3.80;3.60;;;12.90;1.00;;;;;;5072698;28;20202;-71
2023/04/24 08:10:59;;;;;;;4.50;4.20;;;13.00;1.00;;;;;;5072619;28;20401;-71
2023/04/24 08:13:25;;;;;;;3.57;3.27;;;12.90;1.00;;;;;;5072105;28;20245;-71
2023/04/24 08:15:50;;;;;;;4.20;3.63;;;12.90;1.00;;;;;;5074077;28;20177;-70
2023/04/24 08:18:16;;;;;;;3.77;3.20;;;12.90;1.00;;;;;;5072959;28;20186;-71
2023/04/24 08:20:42;;;;;;;4.77;4.37;;;12.90;1.00;;;;;;5072642;28;20185;-71
2023/04/24 08:23:08;;;;;;;7.93;3.60;;;12.90;1.00;;;;;;5088789;28;20201;-71
2023/04/24 08:25:35;;;;;;;3.70;3.50;;;12.80;1.00;;;;;;5092125;28;20382;-72
2023/04/24 08:28:02;;;;;;;4.60;4.20;;;12.80;1.00;;;;;;5073266;28;20226;-70
2023/04/24 08:30:28;;;;;;;4.43;4.13;;;12.70;1.00;;;;;;5092581;28;20374;-71
2023/04/24 08:32:54;;;;;;;4.03;3.80;;;12.60;1.00;;;;;;5076070;28;20833;-70
2023/04/24 08:35:23;;;;;;;4.67;4.27;;;12.60;1.00;;;;;;5082640;28;20406;-70
2023/04/24 08:37:48;;;;;;;4.73;4.33;;;12.80;1.00;;;;;;5090288;28;20405;-71
2023/04/24 08:40:16;;;;;;;5.30;4.90;;;12.80;1.00;;;;;;5061546;28;20398;-70
2023/04/24 08:42:43;;;;;;;4.87;4.47;;;12.90;1.00;;;;;;5090258;28;20201;-71
2023/04/24 08:45:13;;;;;;;5.20;4.80;;;12.90;1.00;;;;;;5075780;28;20399;-71
2023/04/24 08:47:40;;;;;;;4.77;4.37;;;12.90;1.00;;;;;;5058369;28;20811;-69
2023/04/24 08:50:07;;;;;;;5.23;4.73;;;12.90;1.00;;;;;;5075364;28;20482;-71
2023/04/24 08:52:34;;;;;;;6.53;4.70;;;12.90;1.00;;;;;;5076715;28;20426;-71
2023/04/24 08:55:01;;;;;;;5.93;5.53;;;12.90;1.00;;;;;;5072838;28;20482;-71
2023/04/24 08:57:27;;;;;;;4.97;4.67;;;12.90;1.00;;;;;;5075994;28;20474;-71
2023/04/24 08:59:54;;;;;;;6.90;6.20;;;12.90;1.00;;;;;;5058873;28;20403;-71
2023/04/24 09:02:21;;;;;;;6.17;5.67;;;13.00;1.00;;;;;;5075969;28;20503;-71
2023/04/24 09:04:48;;;;;;;5.40;5.00;;;13.00;1.00;;;;;;5076033;28;20474;-70
2023/04/24 09:07:16;;;;;;;5.57;5.07;;;13.10;1.00;;;;;;5076357;28;20535;-70
2023/04/24 09:09:43;;;;;;;4.73;4.40;;;13.20;1.00;;;;;;5076048;28;20399;-71
2023/04/24 09:12:09;;;;;;;5.30;4.90;;;13.30;1.00;;;;;;5074385;28;20423;-70
2023/04/24 09:14:39;;;;;;;5.20;4.70;;;13.40;1.00;;;;;;5057450;28;20971;-70
2023/04/24 09:17:06;;;;;;;4.70;4.33;;;13.40;1.00;;;;;;5058420;28;20428;-70
2023/04/24 09:19:32;;;;;;;5.87;5.47;;;13.30;1.00;;;;;;5071988;28;20394;-70
2023/04/24 09:21:57;;;;;;;5.40;5.00;;;13.20;1.00;;;;;;5095465;28;20896;-71
2023/04/24 09:24:23;;;;;;;6.20;5.60;;;13.10;1.00;;;;;;5065513;28;20398;-72
2023/04/24 09:26:58;;;;;;;5.77;5.27;;;13.10;1.00;;;;;;5057315;28;20186;-71
2023/04/24 09:29:24;;;;;;;5.73;5.23;;;13.10;1.00;;;;;;5075621;28;20415;-72
2023/04/24 09:31:50;;;;;;;6.20;5.70;;;13.00;1.00;;;;;;5074636;28;20392;-72
2023/04/24 09:34:25;;;;;;;6.00;5.50;;;13.10;1.00;;;;;;5075790;28;20736;-72
2023/04/24 09:36:51;;;;;;;7.07;6.57;;;13.20;1.00;;;;;;5075933;28;20369;-72
2023/04/24 09:39:21;;;;;;;6.77;6.10;;;13.30;1.00;;;;;;5073796;28;20813;-72
2023/04/24 09:41:51;;;;;;;7.10;6.60;;;13.40;1.00;;;;;;5056994;28;20937;-72
2023/04/24 09:44:21;;;;;;;7.37;6.57;;;13.40;1.00;;;;;;5075467;28;20388;-72
2023/04/24 09:47:09;;;;;;;7.70;6.70;;;13.40;1.00;;;;;;5074936;28;20415;-72
2023/04/24 09:49:38;;;;;;;7.70;6.97;;;13.40;1.00;;;;;;5067934;28;20766;-70
2023/04/24 09:52:09;;;;;;;8.57;7.60;;;13.30;1.00;;;;;;5054469;28;20844;-71
2023/04/24 09:54:38;;;;;;;6.83;6.27;;;13.30;1.00;;;;;;5075666;28;20409;-72
2023/04/24 09:57:07;;;;;;;8.60;6.63;;;13.30;1.00;;;;;;5075107;28;20423;-71
2023/04/24 09:59:33;;;;;;;6.80;6.17;;;13.30;1.00;;;;;;5095086;28;20382;-72
2023/04/24 10:01:59;;;;;;;8.60;6.93;;;13.50;1.00;;;;;;5094371;28;20453;-71
2023/04/24 10:04:27;;;;;;;7.10;6.47;;;13.70;1.00;;;;;;5075372;28;20190;-70
2023/04/24 10:06:56;;;;;;;7.60;6.90;;;13.80;1.00;;;;;;5073983;28;20785;-71
2023/04/24 10:09:25;;;;;;;6.83;6.03;;;14.00;1.00;;;;;;5074918;28;20447;-71
2023/04/24 10:11:53;;;;;;;7.37;6.67;;;14.00;1.00;;;;;;5074268;28;20392;-70
2023/04/24 10:14:23;;;;;;;6.93;6.27;;;14.20;1.00;;;;;;5091918;28;20386;-70
2023/04/24 10:16:59;;;;;;;7.40;6.80;;;14.40;1.00;;;;;;5095005;28;20749;-72
2023/04/24 10:19:26;;;;;;;6.73;6.13;;;14.50;1.00;;;;;;5077596;28;20792;-71
2023/04/24 10:21:54;;;;;;;9.30;7.30;;;14.50;1.00;;;;;;5075873;28;20439;-72
2023/04/24 10:27:32;;;;;;;8.00;7.20;;;14.40;1.00;;;;;;5029234;28;20507;-72
2023/04/24 10:30:00;;;;;;;8.10;7.30;;;14.20;1.00;;;;;;5056662;28;20431;-72
2023/04/24 10:32:26;;;;;;;8.90;8.10;;;14.10;1.00;;;;;;5071751;28;20527;-71
2023/04/24 10:34:52;;;;;;;6.63;6.13;;;14.00;1.00;;;;;;5071645;28;20489;-71
2023/04/24 10:37:18;;;;;;;8.17;7.40;;;14.00;1.00;;;;;;5066067;28;20425;-72
2023/04/24 10:39:48;;;;;;;8.83;6.80;;;13.80;1.00;;;;;;5043602;28;20227;-72
2023/04/24 10:42:17;;;;;;;7.43;6.73;;;13.70;1.00;;;;;;5072786;28;20444;-72
2023/04/24 10:44:47;;;;;;;8.53;7.73;;;13.70;1.00;;;;;;5063568;28;20759;-72
2023/04/24 10:47:14;;;;;;;8.57;7.67;;;13.60;1.00;;;;;;5073228;28;20441;-71
2023/04/24 10:49:40;;;;;;;8.73;7.90;;;13.60;1.00;;;;;;5072899;28;20955;-72
2023/04/24 10:52:06;;;;;;;8.30;6.93;;;13.50;1.00;;;;;;5073205;28;20944;-71
2023/04/24 10:54:40;;;;;;;9.03;7.97;;;13.40;1.00;;;;;;5067764;28;20395;-72
2023/04/24 10:57:21;;;;;;;8.43;7.60;;;13.40;1.00;;;;;;5055006;28;20219;-72
2023/04/24 11:00:09;;;;;;;8.47;7.60;;;13.30;1.00;;;;;;5065538;28;20431;-72
2023/04/24 11:02:40;;;;;;;7.53;6.77;;;13.40;1.00;;;;;;5074058;28;20488;-71
2023/04/24 11:05:07;;;;;;;7.47;6.77;;;13.50;1.00;;;;;;5063919;28;20435;-71
2023/04/24 11:08:13;;;;;;;8.07;7.27;;;13.50;1.00;;;;;;5072913;28;20467;-73
2023/04/24 11:10:47;;;;;;;6.67;6.00;;;13.70;1.00;;;;;;5070810;28;20794;-73
2023/04/24 11:13:22;;;;;;;8.47;7.67;;;14.00;1.00;;;;;;5072948;28;20468;-71
2023/04/24 11:16:15;;;;;;;7.87;7.07;;;14.10;1.00;;;;;;5073369;28;20462;-72
2023/04/24 11:18:50;;;;;;;10.37;7.20;;;14.30;1.00;;;;;;5077975;28;20502;-73
2023/04/24 11:21:19;;;;;;;8.97;8.07;;;14.60;1.00;;;;;;5075405;28;20499;-73
2023/04/24 11:23:46;;;;;;;10.77;7.50;;;14.70;1.00;;;;;;5087056;28;20421;-71
2023/04/24 11:26:19;;;;;;;9.27;8.30;;;14.70;1.00;;;;;;5071517;28;20433;-72
2023/04/24 11:28:50;;;;;;;8.63;7.83;;;14.60;1.00;;;;;;5067458;28;20460;-72
2023/04/24 11:31:36;;;;;;;9.40;8.57;;;14.30;1.00;;;;;;5058158;28;20591;-71
2023/04/24 11:34:13;;;;;;;9.60;8.60;;;14.10;1.00;;;;;;5078619;28;20421;-73
2023/04/24 11:36:43;;;;;;;9.00;8.10;;;14.00;1.00;;;;;;5072850;28;20428;-72
2023/04/24 11:39:10;;;;;;;11.40;9.10;;;13.90;1.00;;;;;;5069617;28;20920;-71
2023/04/24 11:41:36;;;;;;;11.20;8.10;;;13.70;1.00;;;;;;5052375;28;20759;-72
2023/04/24 11:44:03;;;;;;;9.80;8.80;;;13.60;1.00;;;;;;5072532;28;20498;-72
2023/04/24 11:46:31;;;;;;;9.63;8.73;;;13.50;1.00;;;;;;5073836;28;20376;-73
2023/04/24 11:48:57;;;;;;;10.20;9.20;;;13.40;1.00;;;;;;5079672;28;20551;-72
2023/04/24 11:51:27;;;;;;;8.80;7.90;;;13.40;1.00;;;;;;5052929;28;20376;-71
2023/04/24 11:53:54;;;;;;;10.63;9.13;;;13.50;1.00;;;;;;5078973;28;20419;-73
2023/04/24 11:56:24;;;;;;;11.13;9.40;;;13.70;1.00;;;;;;5074046;28;20375;-72
2023/04/24 11:58:54;;;;;;;15.57;9.57;;;14.00;1.00;;;;;;5074262;28;20431;-71
2023/04/24 12:01:20;;;;;;;13.00;9.67;;;14.20;1.00;;;;;;5069390;28;20396;-71
2023/04/24 12:03:51;;;;;;;9.23;8.17;;;14.00;1.00;;;;;;5068506;28;20491;-72
2023/04/24 12:06:18;;;;;;;10.00;8.73;;;13.90;1.00;;;;;;5068195;28;20429;-72
2023/04/24 12:08:46;;;;;;;10.30;9.10;;;13.80;1.00;;;;;;5058622;28;20508;-71
2023/04/24 12:11:15;;;;;;;10.40;8.33;;;13.60;1.00;;;;;;5071627;28;20452;-71
2023/04/24 12:13:41;;;;;;;8.47;7.53;;;13.60;1.00;;;;;;5077943;28;20426;-72
2023/04/24 12:16:07;;;;;;;9.50;8.43;;;13.60;1.00;;;;;;5067971;28;20951;-72
2023/04/24 12:18:33;;;;;;;10.13;9.13;;;13.80;1.00;;;;;;5076661;28;20166;-71
2023/04/24 12:21:17;;;;;;;9.97;8.97;;;14.00;1.00;;;;;;5069199;28;20265;-73
2023/04/24 12:23:45;;;;;;;11.13;9.17;;;14.80;1.00;;;;;;5073380;28;20209;-71
2023/04/24 12:26:12;;;;;;;10.30;9.23;;;15.50;1.00;;;;;;5082291;28;20439;-72
2023/04/24 12:28:41;;;;;;;10.90;9.83;;;15.80;1.00;;;;;;5063399;28;20459;-73
2023/04/24 12:31:07;;;;;;;9.43;8.43;;;15.90;1.00;;;;;;5038394;28;20478;-72
2023/04/24 12:36:43;;;;;;;11.47;7.77;;;16.40;1.00;;;;;;5069793;28;20952;-73
2023/04/24 12:39:18;;;;;;;10.30;9.40;;;16.90;1.00;;;;;;5077955;28;20527;-73
2023/04/24 12:41:57;;;;;;;8.70;7.83;;;16.90;1.00;;;;;;5074992;28;20412;-71
2023/04/24 12:44:36;;;;;;;10.80;8.93;;;16.60;1.00;;;;;;5093178;28;20415;-72
2023/04/24 12:47:03;;;;;;;12.97;8.47;;;16.20;1.00;;;;;;5068987;28;20446;-72
2023/04/24 12:49:33;;;;;;;9.93;8.87;;;16.20;1.00;;;;;;5077418;28;20428;-73
2023/04/24 12:52:08;;;;;;;9.90;8.30;;;16.60;1.00;;;;;;5070504;28;20448;-71
2023/04/24 12:54:36;;;;;;;10.30;8.93;;;16.60;1.00;;;;;;5074849;28;20543;-71
2023/04/24 13:00:01;;;;;;;12.37;9.33;;;16.80;1.00;;;;;;5012384;28;20477;-73
2023/04/24 13:02:31;;;;;;;8.90;8.03;;;16.80;1.00;;;;;;5052046;28;20451;-73